sensor_id;sensor_type;location;lat;lon;timestamp;P1;durP1;ratioP1;P2;durP2;ratioP2
6217;SDS011;3142;48.206;11.550;2023-04-16T00:01:48;2.43;;;2.20;;
6217;SDS011;3142;48.206;11.550;2023-04-16T00:04:14;2.40;;;2.20;;
6217;SDS011;3142;48.206;11.550;2023-04-16T00:06:41;2.77;;;2.37;;
6217;SDS011;3142;48.206;11.550;2023-04-16T00:09:08;2.40;;;2.20;;
6217;SDS011;3142;48.206;11.550;2023-04-16T00:11:35;2.77;;;2.57;;
6217;SDS011;3142;48.206;11.550;2023-04-16T00:14:01;2.53;;;2.33;;
6217;SDS011;3142;48.206;11.550;2023-04-16T00:16:28;2.47;;;2.27;;
6217;SDS011;3142;48.206;11.550;2023-04-16T00:18:55;2.40;;;2.20;;
6217;SDS011;3142;48.206;11.550;2023-04-16T00:21:21;3.10;;;2.63;;
6217;SDS011;3142;48.206;11.550;2023-04-16T00:23:48;3.37;;;3.07;;
6217;SDS011;3142;48.206;11.550;2023-04-16T00:26:16;3.20;;;2.90;;
6217;SDS011;3142;48.206;11.550;2023-04-16T00:28:42;3.17;;;2.93;;
6217;SDS011;3142;48.206;11.550;2023-04-16T00:31:08;3.40;;;3.10;;
6217;SDS011;3142;48.206;11.550;2023-04-16T00:33:35;3.93;;;3.43;;
6217;SDS011;3142;48.206;11.550;2023-04-16T00:36:01;5.30;;;3.37;;
6217;SDS011;3142;48.206;11.550;2023-04-16T00:38:28;4.30;;;3.90;;
6217;SDS011;3142;48.206;11.550;2023-04-16T00:40:56;4.53;;;4.10;;
6217;SDS011;3142;48.206;11.550;2023-04-16T00:43:24;5.27;;;4.00;;
6217;SDS011;3142;48.206;11.550;2023-04-16T00:45:52;5.13;;;4.10;;
6217;SDS011;3142;48.206;11.550;2023-04-16T00:48:20;5.23;;;3.83;;
6217;SDS011;3142;48.206;11.550;2023-04-16T00:50:46;4.80;;;4.30;;
6217;SDS011;3142;48.206;11.550;2023-04-16T00:53:13;6.67;;;4.67;;
6217;SDS011;3142;48.206;11.550;2023-04-16T00:55:40;4.77;;;4.27;;
6217;SDS011;3142;48.206;11.550;2023-04-16T00:58:07;5.43;;;4.83;;
6217;SDS011;3142;48.206;11.550;2023-04-16T01:00:35;5.87;;;4.80;;
6217;SDS011;3142;48.206;11.550;2023-04-16T01:03:02;5.37;;;4.87;;
6217;SDS011;3142;48.206;11.550;2023-04-16T01:05:29;4.57;;;4.17;;
6217;SDS011;3142;48.206;11.550;2023-04-16T01:07:57;4.97;;;4.20;;
6217;SDS011;3142;48.206;11.550;2023-04-16T01:10:24;6.50;;;4.80;;
6217;SDS011;3142;48.206;11.550;2023-04-16T01:12:51;4.43;;;4.03;;
6217;SDS011;3142;48.206;11.550;2023-04-16T01:15:17;4.90;;;4.40;;
6217;SDS011;3142;48.206;11.550;2023-04-16T01:17:45;4.73;;;4.23;;
6217;SDS011;3142;48.206;11.550;2023-04-16T01:20:12;5.03;;;4.43;;
6217;SDS011;3142;48.206;11.550;2023-04-16T01:22:40;5.50;;;4.30;;
6217;SDS011;3142;48.206;11.550;2023-04-16T01:25:07;4.70;;;4.30;;
6217;SDS011;3142;48.206;11.550;2023-04-16T01:27:33;4.97;;;4.43;;
6217;SDS011;3142;48.206;11.550;2023-04-16T01:30:01;5.23;;;4.73;;
6217;SDS011;3142;48.206;11.550;2023-04-16T01:32:30;4.40;;;4.00;;
6217;SDS011;3142;48.206;11.550;2023-04-16T01:34:56;3.90;;;3.57;;
6217;SDS011;3142;48.206;11.550;2023-04-16T01:37:23;4.97;;;3.87;;
6217;SDS011;3142;48.206;11.550;2023-04-16T01:39:51;7.27;;;3.97;;
6217;SDS011;3142;48.206;11.550;2023-04-16T01:42:17;3.87;;;3.40;;
6217;SDS011;3142;48.206;11.550;2023-04-16T01:44:45;4.03;;;3.53;;
6217;SDS011;3142;48.206;11.550;2023-04-16T01:47:12;4.23;;;3.83;;
6217;SDS011;3142;48.206;11.550;2023-04-16T01:49:38;3.60;;;3.27;;
6217;SDS011;3142;48.206;11.550;2023-04-16T01:52:05;3.57;;;3.23;;
6217;SDS011;3142;48.206;11.550;2023-04-16T01:54:32;3.37;;;3.07;;
6217;SDS011;3142;48.206;11.550;2023-04-16T01:57:00;3.13;;;2.90;;
6217;SDS011;3142;48.206;11.550;2023-04-16T01:59:27;4.00;;;3.30;;
6217;SDS011;3142;48.206;11.550;2023-04-16T02:01:53;3.10;;;2.90;;
6217;SDS011;3142;48.206;11.550;2023-04-16T02:04:20;3.17;;;2.87;;
6217;SDS011;3142;48.206;11.550;2023-04-16T02:06:46;2.90;;;2.60;;
6217;SDS011;3142;48.206;11.550;2023-04-16T02:09:12;2.50;;;2.30;;
6217;SDS011;3142;48.206;11.550;2023-04-16T02:11:39;2.90;;;2.70;;
6217;SDS011;3142;48.206;11.550;2023-04-16T02:14:07;2.60;;;2.40;;
6217;SDS011;3142;48.206;11.550;2023-04-16T02:16:33;2.90;;;2.53;;
6217;SDS011;3142;48.206;11.550;2023-04-16T02:19:00;2.70;;;2.50;;
6217;SDS011;3142;48.206;11.550;2023-04-16T02:21:27;3.37;;;2.73;;
6217;SDS011;3142;48.206;11.550;2023-04-16T02:23:55;2.93;;;2.50;;
6217;SDS011;3142;48.206;11.550;2023-04-16T02:26:22;2.93;;;2.40;;
6217;SDS011;3142;48.206;11.550;2023-04-16T02:28:48;2.50;;;2.30;;
6217;SDS011;3142;48.206;11.550;2023-04-16T02:31:16;2.63;;;2.43;;
6217;SDS011;3142;48.206;11.550;2023-04-16T02:33:43;2.90;;;2.70;;
6217;SDS011;3142;48.206;11.550;2023-04-16T02:36:09;3.10;;;2.80;;
6217;SDS011;3142;48.206;11.550;2023-04-16T02:38:36;2.90;;;2.50;;
6217;SDS011;3142;48.206;11.550;2023-04-16T02:41:03;2.80;;;2.60;;
6217;SDS011;3142;48.206;11.550;2023-04-16T02:43:30;3.00;;;2.70;;
6217;SDS011;3142;48.206;11.550;2023-04-16T02:45:56;2.80;;;2.60;;
6217;SDS011;3142;48.206;11.550;2023-04-16T02:48:24;4.30;;;3.40;;
6217;SDS011;3142;48.206;11.550;2023-04-16T02:50:51;3.40;;;3.10;;
6217;SDS011;3142;48.206;11.550;2023-04-16T02:53:18;3.70;;;3.40;;
6217;SDS011;3142;48.206;11.550;2023-04-16T02:55:48;3.53;;;3.17;;
6217;SDS011;3142;48.206;11.550;2023-04-16T02:58:16;6.80;;;3.70;;
6217;SDS011;3142;48.206;11.550;2023-04-16T03:00:42;3.83;;;3.03;;
6217;SDS011;3142;48.206;11.550;2023-04-16T03:03:09;3.90;;;3.43;;
6217;SDS011;3142;48.206;11.550;2023-04-16T03:05:37;4.33;;;3.57;;
6217;SDS011;3142;48.206;11.550;2023-04-16T03:08:03;4.20;;;3.77;;
6217;SDS011;3142;48.206;11.550;2023-04-16T03:10:30;7.20;;;5.80;;
6217;SDS011;3142;48.206;11.550;2023-04-16T03:12:57;6.03;;;4.27;;
6217;SDS011;3142;48.206;11.550;2023-04-16T03:15:23;3.93;;;3.60;;
6217;SDS011;3142;48.206;11.550;2023-04-16T03:17:50;4.43;;;4.03;;
6217;SDS011;3142;48.206;11.550;2023-04-16T03:20:16;4.57;;;3.97;;
6217;SDS011;3142;48.206;11.550;2023-04-16T03:22:44;4.20;;;3.80;;
6217;SDS011;3142;48.206;11.550;2023-04-16T03:25:11;5.83;;;3.77;;
6217;SDS011;3142;48.206;11.550;2023-04-16T03:27:38;3.97;;;3.60;;
6217;SDS011;3142;48.206;11.550;2023-04-16T03:30:05;4.70;;;3.90;;
6217;SDS011;3142;48.206;11.550;2023-04-16T03:32:32;4.10;;;3.70;;
6217;SDS011;3142;48.206;11.550;2023-04-16T03:34:58;4.70;;;4.20;;
6217;SDS011;3142;48.206;11.550;2023-04-16T03:37:25;4.37;;;3.97;;
6217;SDS011;3142;48.206;11.550;2023-04-16T03:39:53;4.37;;;3.97;;
6217;SDS011;3142;48.206;11.550;2023-04-16T03:42:19;4.40;;;4.00;;
6217;SDS011;3142;48.206;11.550;2023-04-16T03:44:46;4.20;;;3.80;;
6217;SDS011;3142;48.206;11.550;2023-04-16T03:47:12;4.20;;;3.80;;
6217;SDS011;3142;48.206;11.550;2023-04-16T03:49:38;3.87;;;3.57;;
6217;SDS011;3142;48.206;11.550;2023-04-16T03:52:05;4.13;;;3.73;;
6217;SDS011;3142;48.206;11.550;2023-04-16T03:54:31;4.13;;;3.83;;
6217;SDS011;3142;48.206;11.550;2023-04-16T03:56:59;5.23;;;4.30;;
6217;SDS011;3142;48.206;11.550;2023-04-16T03:59:26;4.30;;;3.90;;
6217;SDS011;3142;48.206;11.550;2023-04-16T04:01:52;5.20;;;4.40;;
6217;SDS011;3142;48.206;11.550;2023-04-16T04:04:19;5.03;;;3.80;;
6217;SDS011;3142;48.206;11.550;2023-04-16T04:06:45;4.43;;;4.00;;
6217;SDS011;3142;48.206;11.550;2023-04-16T04:09:12;3.93;;;3.63;;
6217;SDS011;3142;48.206;11.550;2023-04-16T04:11:39;4.20;;;3.80;;
6217;SDS011;3142;48.206;11.550;2023-04-16T04:14:06;4.80;;;4.10;;
6217;SDS011;3142;48.206;11.550;2023-04-16T04:16:33;4.10;;;3.60;;
6217;SDS011;3142;48.206;11.550;2023-04-16T04:18:59;5.13;;;4.17;;
6217;SDS011;3142;48.206;11.550;2023-04-16T04:21:26;4.37;;;3.97;;
6217;SDS011;3142;48.206;11.550;2023-04-16T04:23:53;4.53;;;4.13;;
6217;SDS011;3142;48.206;11.550;2023-04-16T04:26:20;4.47;;;4.07;;
6217;SDS011;3142;48.206;11.550;2023-04-16T04:28:46;3.93;;;3.63;;
6217;SDS011;3142;48.206;11.550;2023-04-16T04:31:14;4.60;;;4.13;;
6217;SDS011;3142;48.206;11.550;2023-04-16T04:33:40;5.27;;;3.83;;
6217;SDS011;3142;48.206;11.550;2023-04-16T04:36:07;4.23;;;3.87;;
6217;SDS011;3142;48.206;11.550;2023-04-16T04:38:33;5.20;;;4.70;;
6217;SDS011;3142;48.206;11.550;2023-04-16T04:41:00;4.90;;;4.50;;
6217;SDS011;3142;48.206;11.550;2023-04-16T04:43:26;6.07;;;4.87;;
6217;SDS011;3142;48.206;11.550;2023-04-16T04:45:52;4.87;;;4.37;;
6217;SDS011;3142;48.206;11.550;2023-04-16T04:48:20;4.90;;;4.27;;
6217;SDS011;3142;48.206;11.550;2023-04-16T04:50:50;5.73;;;4.60;;
6217;SDS011;3142;48.206;11.550;2023-04-16T04:53:17;4.77;;;4.17;;
6217;SDS011;3142;48.206;11.550;2023-04-16T04:55:43;5.10;;;4.30;;
6217;SDS011;3142;48.206;11.550;2023-04-16T04:58:10;4.53;;;4.13;;
6217;SDS011;3142;48.206;11.550;2023-04-16T05:00:36;4.87;;;4.23;;
6217;SDS011;3142;48.206;11.550;2023-04-16T05:03:04;4.23;;;3.83;;
6217;SDS011;3142;48.206;11.550;2023-04-16T05:05:32;4.70;;;4.20;;
6217;SDS011;3142;48.206;11.550;2023-04-16T05:07:59;4.17;;;3.77;;
6217;SDS011;3142;48.206;11.550;2023-04-16T05:10:25;4.77;;;4.37;;
6217;SDS011;3142;48.206;11.550;2023-04-16T05:12:51;4.33;;;3.93;;
6217;SDS011;3142;48.206;11.550;2023-04-16T05:15:18;4.73;;;4.13;;
6217;SDS011;3142;48.206;11.550;2023-04-16T05:17:44;4.67;;;4.03;;
6217;SDS011;3142;48.206;11.550;2023-04-16T05:20:11;4.50;;;3.93;;
6217;SDS011;3142;48.206;11.550;2023-04-16T05:22:38;4.30;;;3.90;;
6217;SDS011;3142;48.206;11.550;2023-04-16T05:25:05;5.00;;;4.50;;
6217;SDS011;3142;48.206;11.550;2023-04-16T05:27:32;4.60;;;4.03;;
6217;SDS011;3142;48.206;11.550;2023-04-16T05:29:58;4.87;;;4.40;;
6217;SDS011;3142;48.206;11.550;2023-04-16T05:32:24;6.37;;;4.93;;
6217;SDS011;3142;48.206;11.550;2023-04-16T05:34:51;5.03;;;4.10;;
6217;SDS011;3142;48.206;11.550;2023-04-16T05:37:18;8.03;;;7.13;;
6217;SDS011;3142;48.206;11.550;2023-04-16T05:39:46;4.33;;;3.93;;
6217;SDS011;3142;48.206;11.550;2023-04-16T05:42:12;3.90;;;3.60;;
6217;SDS011;3142;48.206;11.550;2023-04-16T05:44:39;4.00;;;3.60;;
6217;SDS011;3142;48.206;11.550;2023-04-16T05:47:05;4.57;;;4.17;;
6217;SDS011;3142;48.206;11.550;2023-04-16T05:49:33;3.93;;;3.53;;
6217;SDS011;3142;48.206;11.550;2023-04-16T05:52:00;3.90;;;3.60;;
6217;SDS011;3142;48.206;11.550;2023-04-16T05:54:26;4.30;;;3.90;;
6217;SDS011;3142;48.206;11.550;2023-04-16T05:56:54;4.07;;;3.50;;
6217;SDS011;3142;48.206;11.550;2023-04-16T05:59:20;3.60;;;3.30;;
6217;SDS011;3142;48.206;11.550;2023-04-16T06:01:47;3.27;;;2.97;;
6217;SDS011;3142;48.206;11.550;2023-04-16T06:04:13;3.27;;;2.97;;
6217;SDS011;3142;48.206;11.550;2023-04-16T06:06:39;4.00;;;3.60;;
6217;SDS011;3142;48.206;11.550;2023-04-16T06:09:06;3.33;;;3.00;;
6217;SDS011;3142;48.206;11.550;2023-04-16T06:11:32;3.10;;;2.90;;
6217;SDS011;3142;48.206;11.550;2023-04-16T06:14:00;3.23;;;2.90;;
6217;SDS011;3142;48.206;11.550;2023-04-16T06:16:27;4.13;;;3.63;;
6217;SDS011;3142;48.206;11.550;2023-04-16T06:18:53;2.70;;;2.47;;
6217;SDS011;3142;48.206;11.550;2023-04-16T06:21:19;3.17;;;2.63;;
6217;SDS011;3142;48.206;11.550;2023-04-16T06:23:46;2.80;;;2.60;;
6217;SDS011;3142;48.206;11.550;2023-04-16T06:26:12;2.70;;;2.50;;
6217;SDS011;3142;48.206;11.550;2023-04-16T06:28:39;3.20;;;2.90;;
6217;SDS011;3142;48.206;11.550;2023-04-16T06:31:06;4.20;;;3.37;;
6217;SDS011;3142;48.206;11.550;2023-04-16T06:33:33;3.30;;;2.73;;
6217;SDS011;3142;48.206;11.550;2023-04-16T06:35:59;3.97;;;3.43;;
6217;SDS011;3142;48.206;11.550;2023-04-16T06:38:26;3.07;;;2.37;;
6217;SDS011;3142;48.206;11.550;2023-04-16T06:40:52;3.07;;;2.73;;
6217;SDS011;3142;48.206;11.550;2023-04-16T06:43:18;2.37;;;2.17;;
6217;SDS011;3142;48.206;11.550;2023-04-16T06:45:45;2.83;;;2.53;;
6217;SDS011;3142;48.206;11.550;2023-04-16T06:48:13;2.00;;;1.80;;
6217;SDS011;3142;48.206;11.550;2023-04-16T06:50:39;3.07;;;2.57;;
6217;SDS011;3142;48.206;11.550;2023-04-16T06:53:06;2.93;;;2.40;;
6217;SDS011;3142;48.206;11.550;2023-04-16T06:55:33;4.57;;;3.80;;
6217;SDS011;3142;48.206;11.550;2023-04-16T06:57:59;1.60;;;1.50;;
6217;SDS011;3142;48.206;11.550;2023-04-16T07:00:25;1.70;;;1.60;;
6217;SDS011;3142;48.206;11.550;2023-04-16T07:02:52;2.90;;;2.17;;
6217;SDS011;3142;48.206;11.550;2023-04-16T07:05:20;3.77;;;2.73;;
6217;SDS011;3142;48.206;11.550;2023-04-16T07:07:46;2.37;;;1.90;;
6217;SDS011;3142;48.206;11.550;2023-04-16T07:10:13;4.57;;;3.30;;
6217;SDS011;3142;48.206;11.550;2023-04-16T07:12:39;1.93;;;1.83;;
6217;SDS011;3142;48.206;11.550;2023-04-16T07:15:06;2.07;;;1.87;;
6217;SDS011;3142;48.206;11.550;2023-04-16T07:17:33;1.83;;;1.70;;
6217;SDS011;3142;48.206;11.550;2023-04-16T07:19:59;3.00;;;2.70;;
6217;SDS011;3142;48.206;11.550;2023-04-16T07:22:27;3.00;;;2.33;;
6217;SDS011;3142;48.206;11.550;2023-04-16T07:24:53;5.97;;;3.73;;
6217;SDS011;3142;48.206;11.550;2023-04-16T07:27:20;1.33;;;1.20;;
6217;SDS011;3142;48.206;11.550;2023-04-16T07:29:47;2.63;;;2.37;;
6217;SDS011;3142;48.206;11.550;2023-04-16T07:32:14;1.40;;;1.30;;
6217;SDS011;3142;48.206;11.550;2023-04-16T07:34:40;2.03;;;1.83;;
6217;SDS011;3142;48.206;11.550;2023-04-16T07:37:07;2.10;;;1.90;;
6217;SDS011;3142;48.206;11.550;2023-04-16T07:39:35;2.07;;;1.90;;
6217;SDS011;3142;48.206;11.550;2023-04-16T07:42:01;1.60;;;1.50;;
6217;SDS011;3142;48.206;11.550;2023-04-16T07:44:28;2.17;;;1.80;;
6217;SDS011;3142;48.206;11.550;2023-04-16T07:46:54;4.90;;;2.70;;
6217;SDS011;3142;48.206;11.550;2023-04-16T07:49:21;2.00;;;1.40;;
6217;SDS011;3142;48.206;11.550;2023-04-16T07:51:47;1.30;;;1.20;;
6217;SDS011;3142;48.206;11.550;2023-04-16T07:54:14;1.47;;;1.37;;
6217;SDS011;3142;48.206;11.550;2023-04-16T07:56:41;2.27;;;2.07;;
6217;SDS011;3142;48.206;11.550;2023-04-16T07:59:08;1.57;;;1.20;;
6217;SDS011;3142;48.206;11.550;2023-04-16T08:01:34;1.57;;;1.47;;
6217;SDS011;3142;48.206;11.550;2023-04-16T08:04:01;1.30;;;1.20;;
6217;SDS011;3142;48.206;11.550;2023-04-16T08:06:28;1.37;;;1.27;;
6217;SDS011;3142;48.206;11.550;2023-04-16T08:08:55;1.50;;;1.40;;
6217;SDS011;3142;48.206;11.550;2023-04-16T08:11:21;1.20;;;1.10;;
6217;SDS011;3142;48.206;11.550;2023-04-16T08:13:50;3.20;;;1.40;;
6217;SDS011;3142;48.206;11.550;2023-04-16T08:16:16;1.60;;;1.50;;
6217;SDS011;3142;48.206;11.550;2023-04-16T08:18:42;0.90;;;0.90;;
6217;SDS011;3142;48.206;11.550;2023-04-16T08:21:09;1.53;;;1.43;;
6217;SDS011;3142;48.206;11.550;2023-04-16T08:23:35;2.03;;;1.80;;
6217;SDS011;3142;48.206;11.550;2023-04-16T08:26:02;1.27;;;1.03;;
6217;SDS011;3142;48.206;11.550;2023-04-16T08:28:28;1.30;;;1.10;;
6217;SDS011;3142;48.206;11.550;2023-04-16T08:30:56;1.37;;;1.27;;
6217;SDS011;3142;48.206;11.550;2023-04-16T08:33:23;2.07;;;1.20;;
6217;SDS011;3142;48.206;11.550;2023-04-16T08:35:49;1.20;;;1.10;;
6217;SDS011;3142;48.206;11.550;2023-04-16T08:38:15;1.00;;;1.00;;
6217;SDS011;3142;48.206;11.550;2023-04-16T08:40:42;0.90;;;0.90;;
6217;SDS011;3142;48.206;11.550;2023-04-16T08:43:10;5.43;;;3.40;;
6217;SDS011;3142;48.206;11.550;2023-04-16T08:45:39;1.80;;;1.50;;
6217;SDS011;3142;48.206;11.550;2023-04-16T08:48:08;2.73;;;1.80;;
6217;SDS011;3142;48.206;11.550;2023-04-16T08:50:36;1.50;;;1.30;;
6217;SDS011;3142;48.206;11.550;2023-04-16T08:53:05;1.10;;;1.00;;
6217;SDS011;3142;48.206;11.550;2023-04-16T08:55:35;1.23;;;1.20;;
6217;SDS011;3142;48.206;11.550;2023-04-16T08:58:03;1.00;;;1.00;;
6217;SDS011;3142;48.206;11.550;2023-04-16T09:00:34;1.30;;;1.20;;
6217;SDS011;3142;48.206;11.550;2023-04-16T09:03:02;1.60;;;1.10;;
6217;SDS011;3142;48.206;11.550;2023-04-16T09:05:31;1.50;;;1.40;;
6217;SDS011;3142;48.206;11.550;2023-04-16T09:07:58;2.67;;;2.13;;
6217;SDS011;3142;48.206;11.550;2023-04-16T09:10:25;1.40;;;1.30;;
6217;SDS011;3142;48.206;11.550;2023-04-16T09:12:54;1.83;;;1.50;;
6217;SDS011;3142;48.206;11.550;2023-04-16T09:15:21;1.13;;;1.10;;
6217;SDS011;3142;48.206;11.550;2023-04-16T09:17:49;1.00;;;0.90;;
6217;SDS011;3142;48.206;11.550;2023-04-16T09:20:16;1.87;;;1.77;;
6217;SDS011;3142;48.206;11.550;2023-04-16T09:22:44;0.80;;;0.80;;
6217;SDS011;3142;48.206;11.550;2023-04-16T09:25:11;3.93;;;2.27;;
6217;SDS011;3142;48.206;11.550;2023-04-16T09:27:37;9.07;;;5.73;;
6217;SDS011;3142;48.206;11.550;2023-04-16T09:30:17;1.80;;;1.57;;
6217;SDS011;3142;48.206;11.550;2023-04-16T09:32:46;0.90;;;0.90;;
6217;SDS011;3142;48.206;11.550;2023-04-16T09:35:12;1.47;;;1.13;;
6217;SDS011;3142;48.206;11.550;2023-04-16T09:37:39;3.13;;;2.23;;
6217;SDS011;3142;48.206;11.550;2023-04-16T09:40:08;1.53;;;1.43;;
6217;SDS011;3142;48.206;11.550;2023-04-16T09:42:35;1.43;;;1.33;;
6217;SDS011;3142;48.206;11.550;2023-04-16T09:45:02;3.43;;;2.63;;
6217;SDS011;3142;48.206;11.550;2023-04-16T09:47:37;6.07;;;4.63;;
6217;SDS011;3142;48.206;11.550;2023-04-16T09:50:06;1.30;;;1.20;;
6217;SDS011;3142;48.206;11.550;2023-04-16T09:52:34;1.27;;;1.17;;
6217;SDS011;3142;48.206;11.550;2023-04-16T09:55:02;0.97;;;0.97;;
6217;SDS011;3142;48.206;11.550;2023-04-16T09:57:30;0.90;;;0.90;;
6217;SDS011;3142;48.206;11.550;2023-04-16T10:00:00;1.50;;;1.40;;
6217;SDS011;3142;48.206;11.550;2023-04-16T10:02:27;1.60;;;0.90;;
6217;SDS011;3142;48.206;11.550;2023-04-16T10:04:54;1.23;;;1.00;;
6217;SDS011;3142;48.206;11.550;2023-04-16T10:07:21;2.37;;;1.00;;
6217;SDS011;3142;48.206;11.550;2023-04-16T10:09:52;1.47;;;1.23;;
6217;SDS011;3142;48.206;11.550;2023-04-16T10:12:19;1.50;;;1.40;;
6217;SDS011;3142;48.206;11.550;2023-04-16T10:14:48;3.17;;;2.50;;
6217;SDS011;3142;48.206;11.550;2023-04-16T10:17:14;2.50;;;2.20;;
6217;SDS011;3142;48.206;11.550;2023-04-16T10:19:41;5.90;;;4.13;;
6217;SDS011;3142;48.206;11.550;2023-04-16T10:22:08;3.40;;;2.53;;
6217;SDS011;3142;48.206;11.550;2023-04-16T10:24:35;4.37;;;3.53;;
6217;SDS011;3142;48.206;11.550;2023-04-16T10:27:01;1.60;;;1.50;;
6217;SDS011;3142;48.206;11.550;2023-04-16T10:29:28;2.87;;;1.90;;
6217;SDS011;3142;48.206;11.550;2023-04-16T10:31:57;2.33;;;1.90;;
6217;SDS011;3142;48.206;11.550;2023-04-16T10:34:25;1.37;;;1.27;;
6217;SDS011;3142;48.206;11.550;2023-04-16T10:36:53;1.60;;;1.50;;
6217;SDS011;3142;48.206;11.550;2023-04-16T10:39:20;2.30;;;1.27;;
6217;SDS011;3142;48.206;11.550;2023-04-16T10:41:48;1.20;;;1.10;;
6217;SDS011;3142;48.206;11.550;2023-04-16T10:44:15;2.27;;;1.50;;
6217;SDS011;3142;48.206;11.550;2023-04-16T10:46:43;1.20;;;1.17;;
6217;SDS011;3142;48.206;11.550;2023-04-16T10:49:15;2.67;;;2.00;;
6217;SDS011;3142;48.206;11.550;2023-04-16T10:51:51;3.30;;;0.90;;
6217;SDS011;3142;48.206;11.550;2023-04-16T10:54:20;0.90;;;0.90;;
6217;SDS011;3142;48.206;11.550;2023-04-16T10:56:49;0.90;;;0.90;;
6217;SDS011;3142;48.206;11.550;2023-04-16T10:59:16;1.13;;;1.03;;
6217;SDS011;3142;48.206;11.550;2023-04-16T11:01:45;1.10;;;1.00;;
6217;SDS011;3142;48.206;11.550;2023-04-16T11:04:26;1.50;;;1.37;;
6217;SDS011;3142;48.206;11.550;2023-04-16T11:07:04;1.30;;;1.20;;
6217;SDS011;3142;48.206;11.550;2023-04-16T11:09:52;4.77;;;3.33;;
6217;SDS011;3142;48.206;11.550;2023-04-16T11:12:22;4.40;;;2.90;;
6217;SDS011;3142;48.206;11.550;2023-04-16T11:14:51;2.93;;;2.47;;
6217;SDS011;3142;48.206;11.550;2023-04-16T11:17:19;1.30;;;1.20;;
6217;SDS011;3142;48.206;11.550;2023-04-16T11:19:47;1.50;;;1.40;;
6217;SDS011;3142;48.206;11.550;2023-04-16T11:22:14;1.67;;;1.57;;
6217;SDS011;3142;48.206;11.550;2023-04-16T11:24:42;1.53;;;1.43;;
6217;SDS011;3142;48.206;11.550;2023-04-16T11:27:10;2.20;;;1.93;;
6217;SDS011;3142;48.206;11.550;2023-04-16T11:29:37;2.13;;;1.90;;
6217;SDS011;3142;48.206;11.550;2023-04-16T11:32:04;1.63;;;1.53;;
6217;SDS011;3142;48.206;11.550;2023-04-16T11:34:30;1.70;;;1.40;;
6217;SDS011;3142;48.206;11.550;2023-04-16T11:36:58;0.87;;;0.87;;
6217;SDS011;3142;48.206;11.550;2023-04-16T11:39:25;4.50;;;2.63;;
6217;SDS011;3142;48.206;11.550;2023-04-16T11:41:51;2.80;;;2.00;;
6217;SDS011;3142;48.206;11.550;2023-04-16T11:44:19;2.63;;;2.27;;
6217;SDS011;3142;48.206;11.550;2023-04-16T11:46:47;3.17;;;2.20;;
6217;SDS011;3142;48.206;11.550;2023-04-16T11:49:13;1.50;;;1.40;;
6217;SDS011;3142;48.206;11.550;2023-04-16T11:51:41;2.73;;;2.40;;
6217;SDS011;3142;48.206;11.550;2023-04-16T11:54:12;1.67;;;1.43;;
6217;SDS011;3142;48.206;11.550;2023-04-16T11:56:44;1.40;;;1.30;;
6217;SDS011;3142;48.206;11.550;2023-04-16T11:59:13;1.40;;;1.30;;
6217;SDS011;3142;48.206;11.550;2023-04-16T12:01:41;1.30;;;1.20;;
6217;SDS011;3142;48.206;11.550;2023-04-16T12:04:10;3.70;;;3.00;;
6217;SDS011;3142;48.206;11.550;2023-04-16T12:06:38;1.30;;;1.20;;
6217;SDS011;3142;48.206;11.550;2023-04-16T12:09:25;1.33;;;1.23;;
6217;SDS011;3142;48.206;11.550;2023-04-16T12:11:52;1.30;;;1.20;;
6217;SDS011;3142;48.206;11.550;2023-04-16T12:14:18;1.40;;;1.30;;
6217;SDS011;3142;48.206;11.550;2023-04-16T12:16:45;2.00;;;1.80;;
6217;SDS011;3142;48.206;11.550;2023-04-16T12:19:11;1.47;;;1.30;;
6217;SDS011;3142;48.206;11.550;2023-04-16T12:21:38;1.23;;;1.13;;
6217;SDS011;3142;48.206;11.550;2023-04-16T12:24:06;1.50;;;1.30;;
6217;SDS011;3142;48.206;11.550;2023-04-16T12:26:42;4.37;;;3.20;;
6217;SDS011;3142;48.206;11.550;2023-04-16T12:29:13;1.57;;;1.47;;
6217;SDS011;3142;48.206;11.550;2023-04-16T12:31:41;4.47;;;3.50;;
6217;SDS011;3142;48.206;11.550;2023-04-16T12:34:08;2.50;;;2.30;;
6217;SDS011;3142;48.206;11.550;2023-04-16T12:36:35;3.87;;;2.83;;
6217;SDS011;3142;48.206;11.550;2023-04-16T12:39:02;6.30;;;2.33;;
6217;SDS011;3142;48.206;11.550;2023-04-16T12:41:29;4.83;;;3.07;;
6217;SDS011;3142;48.206;11.550;2023-04-16T12:44:02;7.77;;;4.83;;
6217;SDS011;3142;48.206;11.550;2023-04-16T12:46:30;6.40;;;4.77;;
6217;SDS011;3142;48.206;11.550;2023-04-16T12:48:57;2.97;;;2.07;;
6217;SDS011;3142;48.206;11.550;2023-04-16T12:51:23;1.63;;;1.20;;
6217;SDS011;3142;48.206;11.550;2023-04-16T12:53:51;2.93;;;2.40;;
6217;SDS011;3142;48.206;11.550;2023-04-16T12:56:17;1.70;;;1.60;;
6217;SDS011;3142;48.206;11.550;2023-04-16T12:58:44;1.30;;;1.20;;
6217;SDS011;3142;48.206;11.550;2023-04-16T13:01:12;1.63;;;1.37;;
6217;SDS011;3142;48.206;11.550;2023-04-16T13:03:38;1.50;;;1.40;;
6217;SDS011;3142;48.206;11.550;2023-04-16T13:06:05;3.33;;;1.57;;
6217;SDS011;3142;48.206;11.550;2023-04-16T13:08:31;2.77;;;1.83;;
6217;SDS011;3142;48.206;11.550;2023-04-16T13:10:58;1.40;;;1.30;;
6217;SDS011;3142;48.206;11.550;2023-04-16T13:13:24;1.70;;;1.00;;
6217;SDS011;3142;48.206;11.550;2023-04-16T13:15:50;0.97;;;0.97;;
6217;SDS011;3142;48.206;11.550;2023-04-16T13:18:18;1.80;;;0.90;;
6217;SDS011;3142;48.206;11.550;2023-04-16T13:20:45;2.00;;;1.20;;
6217;SDS011;3142;48.206;11.550;2023-04-16T13:23:11;1.30;;;1.20;;
6217;SDS011;3142;48.206;11.550;2023-04-16T13:25:38;1.30;;;1.20;;
6217;SDS011;3142;48.206;11.550;2023-04-16T13:28:04;2.23;;;1.80;;
6217;SDS011;3142;48.206;11.550;2023-04-16T13:30:31;2.70;;;1.90;;
6217;SDS011;3142;48.206;11.550;2023-04-16T13:32:58;1.10;;;1.00;;
6217;SDS011;3142;48.206;11.550;2023-04-16T13:35:26;1.63;;;1.53;;
6217;SDS011;3142;48.206;11.550;2023-04-16T13:37:52;2.10;;;1.90;;
6217;SDS011;3142;48.206;11.550;2023-04-16T13:40:19;1.30;;;1.20;;
6217;SDS011;3142;48.206;11.550;2023-04-16T13:42:45;1.27;;;1.17;;
6217;SDS011;3142;48.206;11.550;2023-04-16T13:45:19;1.40;;;1.30;;
6217;SDS011;3142;48.206;11.550;2023-04-16T13:47:45;1.20;;;1.10;;
6217;SDS011;3142;48.206;11.550;2023-04-16T13:50:22;1.40;;;1.20;;
6217;SDS011;3142;48.206;11.550;2023-04-16T13:52:48;1.53;;;1.30;;
6217;SDS011;3142;48.206;11.550;2023-04-16T13:55:15;3.10;;;2.03;;
6217;SDS011;3142;48.206;11.550;2023-04-16T13:57:43;1.40;;;1.30;;
6217;SDS011;3142;48.206;11.550;2023-04-16T14:00:10;1.40;;;1.30;;
6217;SDS011;3142;48.206;11.550;2023-04-16T14:02:37;2.47;;;1.30;;
6217;SDS011;3142;48.206;11.550;2023-04-16T14:05:04;1.27;;;1.17;;
6217;SDS011;3142;48.206;11.550;2023-04-16T14:07:33;1.70;;;1.37;;
6217;SDS011;3142;48.206;11.550;2023-04-16T14:09:59;2.13;;;1.93;;
6217;SDS011;3142;48.206;11.550;2023-04-16T14:12:26;1.63;;;1.50;;
6217;SDS011;3142;48.206;11.550;2023-04-16T14:14:53;1.63;;;1.03;;
6217;SDS011;3142;48.206;11.550;2023-04-16T14:17:19;3.63;;;2.70;;
6217;SDS011;3142;48.206;11.550;2023-04-16T14:19:46;2.90;;;2.23;;
6217;SDS011;3142;48.206;11.550;2023-04-16T14:22:12;1.63;;;1.50;;
6217;SDS011;3142;48.206;11.550;2023-04-16T14:24:43;1.57;;;1.47;;
6217;SDS011;3142;48.206;11.550;2023-04-16T14:27:09;2.47;;;1.37;;
6217;SDS011;3142;48.206;11.550;2023-04-16T14:29:36;1.30;;;1.20;;
6217;SDS011;3142;48.206;11.550;2023-04-16T14:32:02;1.10;;;1.10;;
6217;SDS011;3142;48.206;11.550;2023-04-16T14:34:30;2.50;;;1.10;;
6217;SDS011;3142;48.206;11.550;2023-04-16T14:36:56;6.33;;;3.23;;
6217;SDS011;3142;48.206;11.550;2023-04-16T14:39:23;1.10;;;1.00;;
6217;SDS011;3142;48.206;11.550;2023-04-16T14:41:51;1.60;;;1.50;;
6217;SDS011;3142;48.206;11.550;2023-04-16T14:44:17;2.30;;;2.10;;
6217;SDS011;3142;48.206;11.550;2023-04-16T14:46:44;2.10;;;1.70;;
6217;SDS011;3142;48.206;11.550;2023-04-16T14:49:10;1.93;;;1.47;;
6217;SDS011;3142;48.206;11.550;2023-04-16T14:51:38;1.20;;;1.10;;
6217;SDS011;3142;48.206;11.550;2023-04-16T14:54:04;1.73;;;1.33;;
6217;SDS011;3142;48.206;11.550;2023-04-16T14:56:31;1.20;;;1.10;;
6217;SDS011;3142;48.206;11.550;2023-04-16T14:58:59;2.10;;;1.90;;
6217;SDS011;3142;48.206;11.550;2023-04-16T15:01:25;5.27;;;3.37;;